createdAt,value
2023-02-26T00:01:30.089Z,3.50
2023-02-26T00:04:00.121Z,3.27
2023-02-26T00:06:29.267Z,5.03
2023-02-26T00:08:57.232Z,13.50
2023-02-26T00:11:25.567Z,3.07
2023-02-26T00:13:53.767Z,4.17
2023-02-26T00:16:29.878Z,5.30
2023-02-26T00:18:58.348Z,5.70
2023-02-26T00:21:27.476Z,4.97
2023-02-26T00:23:55.198Z,6.90
2023-02-26T00:26:25.273Z,2.77
2023-02-26T00:28:53.602Z,2.93
2023-02-26T00:31:24.717Z,4.80
2023-02-26T00:33:55.366Z,5.30
2023-02-26T00:36:25.728Z,3.20
2023-02-26T00:39:03.150Z,7.03
2023-02-26T00:41:31.506Z,6.83
2023-02-26T00:43:59.944Z,5.40
2023-02-26T00:46:35.332Z,2.77
2023-02-26T00:49:13.350Z,3.20
2023-02-26T00:51:46.078Z,3.93
2023-02-26T00:54:18.102Z,7.90
2023-02-26T00:56:45.848Z,8.90
2023-02-26T00:59:13.515Z,8.53
2023-02-26T01:01:41.358Z,2.87
2023-02-26T01:04:11.789Z,7.80
2023-02-26T01:06:43.356Z,10.00
2023-02-26T01:09:16.382Z,3.17
2023-02-26T01:11:44.663Z,9.00
2023-02-26T01:14:12.880Z,11.90
2023-02-26T01:16:45.870Z,6.33
2023-02-26T01:19:21.459Z,4.70
2023-02-26T01:21:54.185Z,3.43
2023-02-26T01:24:24.465Z,3.00
2023-02-26T01:26:52.955Z,6.30
2023-02-26T01:29:21.145Z,4.20
2023-02-26T01:31:52.262Z,2.70
2023-02-26T01:34:28.210Z,4.40
2023-02-26T01:36:59.517Z,2.80
2023-02-26T01:39:31.229Z,5.43
2023-02-26T01:42:02.157Z,5.60
2023-02-26T01:44:34.821Z,8.47
2023-02-26T01:47:07.595Z,5.80
2023-02-26T01:49:37.983Z,4.30
2023-02-26T01:52:06.748Z,3.50
2023-02-26T01:54:37.378Z,3.33
2023-02-26T01:57:08.368Z,2.43
2023-02-26T01:59:39.805Z,2.60
2023-02-26T02:02:10.129Z,5.33
2023-02-26T02:04:40.728Z,10.70
2023-02-26T02:07:08.877Z,4.30
2023-02-26T02:09:37.070Z,6.20
2023-02-26T02:12:23.157Z,2.97
2023-02-26T02:14:59.961Z,2.60
2023-02-26T02:17:35.634Z,4.70
2023-02-26T02:20:22.014Z,3.60
2023-02-26T02:23:03.153Z,3.10
2023-02-26T02:25:48.059Z,3.30
2023-02-26T02:28:25.340Z,3.00
2023-02-26T02:31:03.440Z,4.47
2023-02-26T02:33:35.752Z,3.07
2023-02-26T02:36:07.440Z,7.63
2023-02-26T02:38:37.110Z,5.63
2023-02-26T02:41:08.727Z,4.40
2023-02-26T02:43:39.668Z,7.30
2023-02-26T02:46:11.496Z,3.43
2023-02-26T02:48:41.384Z,5.30
2023-02-26T02:51:12.436Z,2.17
2023-02-26T02:53:44.155Z,5.87
2023-02-26T02:56:14.646Z,2.97
2023-02-26T02:58:44.733Z,4.10
2023-02-26T03:01:17.218Z,5.43
2023-02-26T03:03:48.183Z,3.60
2023-02-26T03:06:17.245Z,3.70
2023-02-26T03:08:46.181Z,6.80
2023-02-26T03:11:14.076Z,5.37
2023-02-26T03:13:42.110Z,2.60
2023-02-26T03:16:41.109Z,8.57
2023-02-26T03:19:16.336Z,6.53
2023-02-26T03:21:49.933Z,5.77
2023-02-26T03:24:31.676Z,3.87
2023-02-26T03:27:05.184Z,5.50
2023-02-26T03:29:40.371Z,3.33
2023-02-26T03:32:14.116Z,4.20
2023-02-26T03:34:47.281Z,9.53
2023-02-26T03:37:22.983Z,5.07
2023-02-26T03:39:53.890Z,9.00
2023-02-26T03:42:27.840Z,2.40
2023-02-26T03:45:03.433Z,8.37
2023-02-26T03:47:33.827Z,9.40
2023-02-26T03:50:07.131Z,7.30
2023-02-26T03:52:48.150Z,8.30
2023-02-26T03:55:27.321Z,3.93
2023-02-26T03:58:07.203Z,3.10
2023-02-26T04:00:48.599Z,2.60
2023-02-26T04:03:22.892Z,3.93
2023-02-26T04:05:51.584Z,7.53
2023-02-26T04:08:20.127Z,7.23
2023-02-26T04:10:53.940Z,9.37
2023-02-26T04:13:21.588Z,10.17
2023-02-26T04:15:50.270Z,4.30
2023-02-26T04:18:19.309Z,3.13
2023-02-26T04:20:47.000Z,4.87
2023-02-26T04:23:14.530Z,6.63
2023-02-26T04:25:43.090Z,3.93
2023-02-26T04:28:11.912Z,8.63
2023-02-26T04:30:39.556Z,4.27
2023-02-26T04:33:09.473Z,5.77
2023-02-26T04:35:39.585Z,3.83
2023-02-26T04:38:07.599Z,4.37
2023-02-26T04:40:35.411Z,3.60
2023-02-26T04:43:03.099Z,4.03
2023-02-26T04:45:35.219Z,8.60
2023-02-26T04:48:03.683Z,4.07
2023-02-26T04:50:32.572Z,3.07
2023-02-26T04:53:01.528Z,2.93
2023-02-26T04:55:29.347Z,6.50
2023-02-26T04:57:57.702Z,2.70
2023-02-26T05:00:26.902Z,3.43
2023-02-26T05:02:54.582Z,3.43
2023-02-26T05:05:22.693Z,1.93
2023-02-26T05:07:50.351Z,7.53
2023-02-26T05:10:19.346Z,5.60
2023-02-26T05:12:46.853Z,4.50
2023-02-26T05:15:16.192Z,4.47
2023-02-26T05:17:45.308Z,2.80
2023-02-26T05:20:13.370Z,5.57
2023-02-26T05:22:40.890Z,2.43
2023-02-26T05:25:09.519Z,4.53
2023-02-26T05:27:40.205Z,7.30
2023-02-26T05:30:09.558Z,9.87
2023-02-26T05:32:38.130Z,6.03
2023-02-26T05:35:06.332Z,3.87
2023-02-26T05:37:33.951Z,2.53
2023-02-26T05:40:01.473Z,2.53
2023-02-26T05:42:29.167Z,2.70
2023-02-26T05:44:58.986Z,4.83
2023-02-26T05:47:26.857Z,5.50
2023-02-26T05:49:54.724Z,6.20
2023-02-26T05:52:23.429Z,4.03
2023-02-26T05:54:51.960Z,5.67
2023-02-26T05:57:20.105Z,2.70
2023-02-26T05:59:47.723Z,3.67
2023-02-26T06:02:17.003Z,6.57
2023-02-26T06:04:44.582Z,4.73
2023-02-26T06:07:14.889Z,5.00
2023-02-26T06:09:43.910Z,8.60
2023-02-26T06:12:11.800Z,6.93
2023-02-26T06:14:39.756Z,6.40
2023-02-26T06:17:08.016Z,6.60
2023-02-26T06:19:38.901Z,3.73
2023-02-26T06:22:06.685Z,2.40
2023-02-26T06:24:34.308Z,5.40
2023-02-26T06:27:02.282Z,7.97
2023-02-26T06:29:30.742Z,6.40
2023-02-26T06:31:58.642Z,7.50
2023-02-26T06:34:26.375Z,7.17
2023-02-26T06:36:55.224Z,9.63
2023-02-26T06:39:22.757Z,6.80
2023-02-26T06:41:50.312Z,3.73
2023-02-26T06:44:18.043Z,6.60
2023-02-26T06:46:46.058Z,4.90
2023-02-26T06:49:14.102Z,3.37
2023-02-26T06:51:41.753Z,10.83
2023-02-26T06:54:12.076Z,5.40
2023-02-26T06:56:39.845Z,8.40
2023-02-26T06:59:07.492Z,3.73
2023-02-26T07:01:35.500Z,4.90
2023-02-26T07:04:03.020Z,3.40
2023-02-26T07:06:30.970Z,3.53
2023-02-26T07:08:58.809Z,6.97
2023-02-26T07:11:28.020Z,7.53
2023-02-26T07:13:55.768Z,3.67
2023-02-26T07:16:23.994Z,4.23
2023-02-26T07:18:51.627Z,6.33
2023-02-26T07:21:19.192Z,3.30
2023-02-26T07:23:47.031Z,7.30
2023-02-26T07:26:14.906Z,3.50
2023-02-26T07:28:43.864Z,7.60
2023-02-26T07:31:11.959Z,10.90
2023-02-26T07:33:41.027Z,5.50
2023-02-26T07:36:08.792Z,3.63
2023-02-26T07:38:36.577Z,4.07
2023-02-26T07:41:04.617Z,2.30
2023-02-26T07:43:32.527Z,5.30
2023-02-26T07:46:02.561Z,3.40
2023-02-26T07:48:30.270Z,3.90
2023-02-26T07:50:58.020Z,6.27
2023-02-26T07:53:26.203Z,9.13
2023-02-26T07:55:53.898Z,6.87
2023-02-26T07:58:21.601Z,6.03
2023-02-26T08:00:49.221Z,2.70
2023-02-26T08:03:18.691Z,5.67
2023-02-26T08:05:46.186Z,5.57
2023-02-26T08:08:13.979Z,6.10
2023-02-26T08:10:43.211Z,5.50
2023-02-26T08:13:10.947Z,7.90
2023-02-26T08:15:38.578Z,7.97
2023-02-26T08:18:06.295Z,8.03
2023-02-26T08:20:35.679Z,4.67
2023-02-26T08:23:03.602Z,6.90
2023-02-26T08:25:32.484Z,7.03
2023-02-26T08:28:01.149Z,3.33
2023-02-26T08:30:29.005Z,2.17
2023-02-26T08:32:58.706Z,3.67
2023-02-26T08:35:26.531Z,11.47
2023-02-26T08:37:55.463Z,4.60
2023-02-26T08:40:23.454Z,8.20
2023-02-26T08:42:51.373Z,4.13
2023-02-26T08:45:19.946Z,4.27
2023-02-26T08:47:56.584Z,4.40
2023-02-26T08:50:25.538Z,3.53
2023-02-26T08:52:56.255Z,2.57
2023-02-26T08:55:23.972Z,9.00
2023-02-26T08:57:51.888Z,3.90
2023-02-26T09:00:20.319Z,2.30
2023-02-26T09:02:48.200Z,6.23
2023-02-26T09:05:16.054Z,3.53
2023-02-26T09:07:44.842Z,3.37
2023-02-26T09:10:17.653Z,4.23
2023-02-26T09:12:46.760Z,4.00
2023-02-26T09:15:15.338Z,7.83
2023-02-26T09:17:43.860Z,2.23
2023-02-26T09:20:13.725Z,3.47
2023-02-26T09:22:41.541Z,3.83
2023-02-26T09:25:11.793Z,4.03
2023-02-26T09:27:42.931Z,2.33
2023-02-26T09:30:12.337Z,4.00
2023-02-26T09:32:40.696Z,6.60
2023-02-26T09:35:09.863Z,2.57
2023-02-26T09:37:39.660Z,3.27
2023-02-26T09:40:09.108Z,3.00
2023-02-26T09:42:49.400Z,2.93
2023-02-26T09:45:23.871Z,2.13
2023-02-26T09:47:54.182Z,4.13
2023-02-26T09:50:24.528Z,5.07
2023-02-26T09:52:58.392Z,5.13
2023-02-26T09:55:30.172Z,2.40
2023-02-26T09:58:01.504Z,2.00
2023-02-26T10:00:37.419Z,2.23
2023-02-26T10:03:16.864Z,3.93
2023-02-26T10:05:51.119Z,2.03
2023-02-26T10:08:22.413Z,2.23
2023-02-26T10:11:32.337Z,3.20
2023-02-26T10:14:06.374Z,3.50
2023-02-26T10:16:37.132Z,2.63
2023-02-26T10:19:12.664Z,1.83
2023-02-26T10:21:43.587Z,1.70
2023-02-26T10:24:15.526Z,2.07
2023-02-26T10:26:52.314Z,1.63
2023-02-26T10:29:26.275Z,2.43
2023-02-26T10:32:09.276Z,2.93
2023-02-26T10:34:43.438Z,3.60
2023-02-26T10:37:17.077Z,1.73
2023-02-26T10:39:50.605Z,5.00
2023-02-26T10:42:23.436Z,2.43
2023-02-26T10:45:03.373Z,2.13
2023-02-26T10:47:39.299Z,2.80
2023-02-26T10:51:04.260Z,3.40
2023-02-26T10:54:24.112Z,4.67
2023-02-26T10:58:02.616Z,3.70
2023-02-26T11:01:23.526Z,3.67
2023-02-26T11:04:08.826Z,2.27
2023-02-26T11:07:18.008Z,3.93
2023-02-26T11:10:02.797Z,3.50
2023-02-26T11:12:33.966Z,4.00
2023-02-26T11:18:41.691Z,2.40
2023-02-26T11:21:10.616Z,1.97
2023-02-26T11:23:40.126Z,5.17
2023-02-26T11:26:09.197Z,4.93
2023-02-26T11:28:38.840Z,3.50
2023-02-26T11:31:08.051Z,2.83
2023-02-26T11:33:39.036Z,2.10
2023-02-26T11:36:11.122Z,3.00
2023-02-26T11:38:39.406Z,4.33
2023-02-26T11:41:07.602Z,3.43
2023-02-26T11:43:38.469Z,5.23
2023-02-26T11:46:06.574Z,5.10
2023-02-26T11:48:41.089Z,5.87
2023-02-26T11:51:12.340Z,4.83
2023-02-26T11:53:44.990Z,4.77
2023-02-26T11:56:15.372Z,4.23
2023-02-26T11:58:46.997Z,4.50
2023-02-26T12:01:23.005Z,4.97
2023-02-26T12:03:53.354Z,3.43
2023-02-26T12:06:23.028Z,5.70
2023-02-26T12:08:51.947Z,3.63
2023-02-26T12:11:33.337Z,3.43
2023-02-26T12:14:11.498Z,8.30
2023-02-26T12:16:54.351Z,3.23
2023-02-26T12:19:40.610Z,4.20
2023-02-26T12:22:23.576Z,3.93
2023-02-26T12:25:12.821Z,3.80
2023-02-26T12:27:52.040Z,7.03
2023-02-26T12:30:51.946Z,3.40
2023-02-26T12:33:31.056Z,3.67
2023-02-26T12:36:09.237Z,2.97
2023-02-26T12:38:43.731Z,3.90
2023-02-26T12:41:30.889Z,4.27
2023-02-26T12:44:02.869Z,6.23
2023-02-26T12:46:40.847Z,3.50
2023-02-26T12:49:45.067Z,3.20
2023-02-26T12:52:36.114Z,2.80
2023-02-26T12:55:15.862Z,11.13
2023-02-26T12:57:54.591Z,3.00
2023-02-26T13:00:32.694Z,6.87
2023-02-26T13:03:34.992Z,4.40
2023-02-26T13:06:19.454Z,5.97
2023-02-26T13:08:56.122Z,3.87
2023-02-26T13:11:29.795Z,3.37
2023-02-26T13:14:10.135Z,6.13
2023-02-26T13:16:46.528Z,2.20
2023-02-26T13:19:26.208Z,3.20
2023-02-26T13:21:57.351Z,3.33
2023-02-26T13:24:30.284Z,3.70
2023-02-26T13:26:58.293Z,3.03
2023-02-26T13:29:35.932Z,3.93
2023-02-26T13:32:06.862Z,1.70
2023-02-26T13:34:39.578Z,5.70
2023-02-26T13:37:07.730Z,4.20
2023-02-26T13:39:46.398Z,5.70
2023-02-26T13:42:25.052Z,3.93
2023-02-26T13:44:59.422Z,3.20
2023-02-26T13:47:42.532Z,2.50
2023-02-26T13:50:23.026Z,3.87
2023-02-26T13:52:53.809Z,3.00
2023-02-26T13:55:41.915Z,4.73
2023-02-26T13:58:31.442Z,4.73
2023-02-26T14:01:02.385Z,4.20
2023-02-26T14:03:32.673Z,5.80
2023-02-26T14:06:39.081Z,6.33
2023-02-26T14:09:17.484Z,4.67
2023-02-26T14:11:48.151Z,3.17
2023-02-26T14:14:28.379Z,3.80
2023-02-26T14:17:20.634Z,3.73
2023-02-26T14:20:22.494Z,4.33
2023-02-26T14:22:53.717Z,4.53
2023-02-26T14:25:28.198Z,4.77
2023-02-26T14:28:30.318Z,2.53
2023-02-26T14:31:11.325Z,3.93
2023-02-26T14:33:41.865Z,4.80
2023-02-26T14:36:17.648Z,5.57
2023-02-26T14:38:46.482Z,3.70
2023-02-26T14:41:36.310Z,5.93
2023-02-26T14:44:10.213Z,2.73
2023-02-26T14:46:38.551Z,7.47
2023-02-26T14:49:08.191Z,5.33
2023-02-26T14:52:09.542Z,4.80
2023-02-26T14:54:49.907Z,10.33
2023-02-26T14:57:25.854Z,5.70
2023-02-26T15:00:14.183Z,1.77
2023-02-26T15:02:57.255Z,5.50
2023-02-26T15:05:36.297Z,8.53
2023-02-26T15:08:46.903Z,6.43
2023-02-26T15:11:34.705Z,5.73
2023-02-26T15:14:41.751Z,4.47
2023-02-26T15:17:27.915Z,6.87
2023-02-26T15:20:08.035Z,4.37
2023-02-26T15:22:47.927Z,6.03
2023-02-26T15:25:26.164Z,4.50
2023-02-26T15:27:56.616Z,4.40
2023-02-26T15:30:25.996Z,3.33
2023-02-26T15:33:00.892Z,6.47
2023-02-26T15:35:30.384Z,3.70
2023-02-26T15:38:01.696Z,3.50
2023-02-26T15:40:31.677Z,8.57
2023-02-26T15:43:00.324Z,2.97
2023-02-26T15:45:33.426Z,7.70
2023-02-26T15:48:04.573Z,7.43
2023-02-26T15:50:40.870Z,4.60
2023-02-26T15:53:15.613Z,5.57
2023-02-26T15:58:43.262Z,3.63
2023-02-26T16:01:17.803Z,5.67
2023-02-26T16:03:50.982Z,3.80
2023-02-26T16:06:21.726Z,5.93
2023-02-26T16:08:49.411Z,2.57
2023-02-26T16:11:23.209Z,4.70
2023-02-26T16:13:53.966Z,7.80
2023-02-26T16:16:26.109Z,5.97
2023-02-26T16:18:58.508Z,3.50
2023-02-26T16:21:39.634Z,3.70
2023-02-26T16:24:11.524Z,4.00
2023-02-26T16:26:43.614Z,3.37
2023-02-26T16:29:19.725Z,5.00
2023-02-26T16:31:56.467Z,7.70
2023-02-26T16:34:37.149Z,4.30
2023-02-26T16:37:14.637Z,4.17
2023-02-26T16:39:46.406Z,3.37
2023-02-26T16:42:18.183Z,6.57
2023-02-26T16:44:53.338Z,7.50
2023-02-26T16:47:21.520Z,5.60
2023-02-26T16:49:52.936Z,6.97
2023-02-26T16:52:24.201Z,4.60
2023-02-26T16:55:03.215Z,5.57
2023-02-26T16:57:38.003Z,7.20
2023-02-26T17:00:18.592Z,3.40
2023-02-26T17:02:50.800Z,6.63
2023-02-26T17:05:25.366Z,8.03
2023-02-26T17:07:58.632Z,3.03
2023-02-26T17:10:34.099Z,3.70
2023-02-26T17:13:16.151Z,3.73
2023-02-26T17:15:46.724Z,3.70
2023-02-26T17:18:16.281Z,3.80
2023-02-26T17:20:46.503Z,8.50
2023-02-26T17:23:17.957Z,5.73
2023-02-26T17:25:51.925Z,7.70
2023-02-26T17:28:25.081Z,3.80
2023-02-26T17:30:54.218Z,9.50
2023-02-26T17:33:24.522Z,2.40
2023-02-26T17:36:00.238Z,11.90
2023-02-26T17:38:29.716Z,4.07
2023-02-26T17:41:02.824Z,7.10
2023-02-26T17:43:30.874Z,4.67
2023-02-26T17:45:59.771Z,2.50
2023-02-26T17:48:28.336Z,3.40
2023-02-26T17:50:59.973Z,6.80
2023-02-26T17:53:51.855Z,7.27
2023-02-26T17:57:09.565Z,6.70
2023-02-26T17:59:38.521Z,5.37
2023-02-26T18:02:17.380Z,7.33
2023-02-26T18:04:52.506Z,6.80
2023-02-26T18:07:29.059Z,4.43
2023-02-26T18:10:00.771Z,4.60
2023-02-26T18:12:32.119Z,4.17
2023-02-26T18:15:03.344Z,5.33
2023-02-26T18:17:33.784Z,8.33
2023-02-26T18:20:06.951Z,7.20
2023-02-26T18:22:38.942Z,11.47
2023-02-26T18:25:10.288Z,9.00
2023-02-26T18:27:38.798Z,4.87
2023-02-26T18:33:42.020Z,11.07
2023-02-26T18:36:22.983Z,6.17
2023-02-26T18:39:15.751Z,8.57
2023-02-26T18:42:36.378Z,13.97
2023-02-26T18:45:32.811Z,5.73
2023-02-26T18:48:07.392Z,8.73
2023-02-26T18:50:47.851Z,6.67
2023-02-26T18:56:44.893Z,8.67
2023-02-26T18:59:38.460Z,5.50
2023-02-26T19:02:17.170Z,6.40
2023-02-26T19:05:13.831Z,7.53
2023-02-26T19:07:55.376Z,6.33
2023-02-26T19:10:53.170Z,5.87
2023-02-26T19:13:53.523Z,5.50
2023-02-26T19:16:39.450Z,9.63
2023-02-26T19:19:35.205Z,7.80
2023-02-26T19:25:29.040Z,9.50
2023-02-26T19:31:08.059Z,6.07
2023-02-26T19:33:40.222Z,9.10
2023-02-26T19:36:10.367Z,8.13
2023-02-26T19:38:38.700Z,16.23
2023-02-26T19:41:13.310Z,9.00
2023-02-26T19:43:41.505Z,12.40
2023-02-26T19:46:13.431Z,9.00
2023-02-26T19:48:45.027Z,14.50
2023-02-26T19:51:13.850Z,9.20
2023-02-26T19:53:42.273Z,12.93
2023-02-26T19:56:13.024Z,13.20
2023-02-26T19:58:43.730Z,9.13
2023-02-26T20:01:16.542Z,9.67
2023-02-26T20:03:48.930Z,7.77
2023-02-26T20:06:18.960Z,10.50
2023-02-26T20:08:47.924Z,8.90
2023-02-26T20:11:17.358Z,11.03
2023-02-26T20:13:45.575Z,8.80
2023-02-26T20:16:18.808Z,8.73
2023-02-26T20:18:50.793Z,11.10
2023-02-26T20:21:19.195Z,12.23
2023-02-26T20:23:48.096Z,8.70
2023-02-26T20:26:17.021Z,13.97
2023-02-26T20:28:45.268Z,7.33
2023-02-26T20:31:13.502Z,10.00
2023-02-26T20:33:45.673Z,6.40
2023-02-26T20:36:13.921Z,11.90
2023-02-26T20:38:44.126Z,9.70
2023-02-26T20:41:12.344Z,9.20
2023-02-26T20:43:40.173Z,13.63
2023-02-26T20:46:10.946Z,6.17
2023-02-26T20:48:46.343Z,7.60
2023-02-26T20:51:20.960Z,7.10
2023-02-26T20:53:49.050Z,6.07
2023-02-26T20:56:18.111Z,9.80
2023-02-26T20:58:46.600Z,9.40
2023-02-26T21:01:15.166Z,8.77
2023-02-26T21:03:45.729Z,7.87
2023-02-26T21:06:13.865Z,7.73
2023-02-26T21:08:45.082Z,8.83
2023-02-26T21:11:15.327Z,8.03
2023-02-26T21:13:46.704Z,9.83
2023-02-26T21:16:14.930Z,12.00
2023-02-26T21:18:43.275Z,14.73
2023-02-26T21:21:13.551Z,14.23
2023-02-26T21:23:45.268Z,8.73
2023-02-26T21:26:14.417Z,6.60
2023-02-26T21:28:47.173Z,7.40
2023-02-26T21:31:16.056Z,8.53
2023-02-26T21:33:44.262Z,10.43
2023-02-26T21:36:16.226Z,8.13
2023-02-26T21:38:48.709Z,11.73
2023-02-26T21:41:56.965Z,8.53
2023-02-26T21:44:26.986Z,7.73
2023-02-26T21:46:54.900Z,10.13
2023-02-26T21:49:22.929Z,5.80
2023-02-26T21:51:51.246Z,7.70
2023-02-26T21:54:20.701Z,6.83
2023-02-26T21:56:50.786Z,11.00
2023-02-26T21:59:21.729Z,11.13
2023-02-26T22:01:49.686Z,8.53
2023-02-26T22:04:21.819Z,10.17
2023-02-26T22:06:57.659Z,8.70
2023-02-26T22:09:28.956Z,8.83
2023-02-26T22:12:08.792Z,9.83
2023-02-26T22:14:40.756Z,8.43
2023-02-26T22:17:09.454Z,8.40
2023-02-26T22:19:41.357Z,11.20
2023-02-26T22:22:19.657Z,9.83
2023-02-26T22:24:49.562Z,7.37
2023-02-26T22:27:18.566Z,13.20
2023-02-26T22:29:51.004Z,14.20
2023-02-26T22:32:23.366Z,23.30
2023-02-26T22:34:53.336Z,19.90
2023-02-26T22:37:22.778Z,25.10
2023-02-26T22:39:53.177Z,23.13
2023-02-26T22:42:23.322Z,33.80
2023-02-26T22:44:52.741Z,25.80
2023-02-26T22:47:24.122Z,23.03
2023-02-26T22:49:56.982Z,24.90
2023-02-26T22:52:26.412Z,22.50
2023-02-26T22:55:01.220Z,23.70
2023-02-26T22:57:29.331Z,23.33
2023-02-26T22:59:58.793Z,25.60
2023-02-26T23:02:26.812Z,28.57
2023-02-26T23:04:54.866Z,27.43
2023-02-26T23:07:22.933Z,26.43
2023-02-26T23:09:50.976Z,23.20
2023-02-26T23:12:20.606Z,31.33
2023-02-26T23:14:48.882Z,14.70
2023-02-26T23:17:16.804Z,19.37
2023-02-26T23:19:44.640Z,18.00
2023-02-26T23:22:12.781Z,13.53
2023-02-26T23:24:42.167Z,11.97
2023-02-26T23:27:09.984Z,11.00
2023-02-26T23:29:39.415Z,14.60
2023-02-26T23:32:07.264Z,12.83
2023-02-26T23:34:35.137Z,14.10
2023-02-26T23:37:05.545Z,18.57
2023-02-26T23:39:33.590Z,14.20
2023-02-26T23:42:02.793Z,13.47
2023-02-26T23:44:32.336Z,12.77
2023-02-26T23:47:02.141Z,18.20
2023-02-26T23:49:32.561Z,16.80
2023-02-26T23:52:02.718Z,14.87
2023-02-26T23:54:51.134Z,14.23
2023-02-26T23:57:21.328Z,14.27
2023-02-26T23:59:51.055Z,10.43
